Messwerte Fond Du Lac

Temperatur

Temperatur
°C
1594321200 14.00 14.00 26
1594324800 15.00 15.00 22
1594328400 16.00 16.00 23
1594332000 17.00 17.00 24
1594335600 18.00 18.00 24
1594339200 19.00 19.00 24
1594342800 20.00 20.00
1594346400 21.00 21.00 22
1594350000 22.00 22.00 22
1594353600 23.00 23.00 22
1594357200 0.00 0.00 23
1594360800 1.00 1.00 22
1594364400 2.00 2.00
1594368000 3.00 3.00 22
1594371600 4.00 4.00 21
1594375200 5.00 5.00 21
1594378800 6.00 6.00 21
1594382400 7.00 7.00 21
1594386000 8.00 8.00 22
1594389600 9.00 9.00 23
1594393200 10.00 10.00 24
1594396800 11.00 11.00 25
1594400400 12.00 12.00 27
1594404000 13.00 13.00 28

Aktuellste Messwerte

Wettercharakter
Wetter: freundlich
Temperatur
28 °C
Feuchtigkeit
55 %
Wind
20 km/hWindrichtung: Nordwest
Böen
30 km/h
Luftdruck
1011 hPa
Messzeit: 10. Juli 2020, 14.00Datenquelle: METAR

Weitere Messstationen in der Nähe

Messstation Temperatur Entfernung
Oshkosh 26 °C 24 km
Juneau 26 °C 41 km
West Bend 26 °C 48 km
Sheboygan 28 °C 51 km
Appleton / Outagamie 26 °C 53 km
Watertown 27 °C 69 km
Waupaca 29 °C 75 km

Wind

Windrichtung Böen Mittelwind
° km/h km/h
1594321200 14.00 13.00 - 14.00 20° 40 20
1594324800 15.00 14.00 - 15.00 40° 60 30
1594328400 16.00 15.00 - 16.00 60° 15
1594332000 17.00 16.00 - 17.00 100° 5
1594335600 18.00 17.00 - 18.00 140° 10
1594339200 19.00 18.00 - 19.00 110° 15
1594342800 20.00 19.00 - 20.00
1594346400 21.00 20.00 - 21.00 340° 30 20
1594350000 22.00 21.00 - 22.00 30° 15
1594353600 23.00 22.00 - 23.00 350° 15
1594357200 0.00 23.00 - 0.00 10° 15
1594360800 1.00 0.00 - 1.00 10° 15
1594364400 2.00 1.00 - 2.00
1594368000 3.00 2.00 - 3.00 330° 15
1594371600 4.00 3.00 - 4.00 310° 20
1594375200 5.00 4.00 - 5.00 330° 30 20
1594378800 6.00 5.00 - 6.00 330° 15
1594382400 7.00 6.00 - 7.00 350° 20
1594386000 8.00 7.00 - 8.00 300° 15
1594389600 9.00 8.00 - 9.00 310° 15
1594393200 10.00 9.00 - 10.00 320° 15
1594396800 11.00 10.00 - 11.00 330° 20
1594400400 12.00 11.00 - 12.00 350° 30 20
1594404000 13.00 12.00 - 13.00 340° 30 15

Ihre Wetterstation

Fehlt Ihre Wetterstation auf unserem Portal?

Schreiben Sie an network@meteonews.ch

Klima

Wann ist es am wärmsten? Wann regnet es am wenigsten? Unsere Klimadaten geben Auskunft.